createdAt,value
2022-08-24T00:00:38.687Z,100881.38
2022-08-24T00:03:07.520Z,100887.47
2022-08-24T00:05:34.962Z,100886.31
2022-08-24T00:08:02.730Z,100874.38
2022-08-24T00:10:30.172Z,100881.47
2022-08-24T00:12:58.556Z,100882.69
2022-08-24T00:15:25.914Z,100877.56
2022-08-24T00:17:53.322Z,100877.56
2022-08-24T00:20:20.731Z,100877.91
2022-08-24T00:22:48.067Z,100875.50
2022-08-24T00:25:19.905Z,100879.50
2022-08-24T00:27:47.819Z,100876.72
2022-08-24T00:30:18.519Z,100875.13
2022-08-24T00:32:47.582Z,100867.22
2022-08-24T00:35:18.328Z,100877.50
2022-08-24T00:37:47.749Z,100864.38
2022-08-24T00:40:22.379Z,100874.72
2022-08-24T00:42:50.726Z,100876.44
2022-08-24T00:45:20.094Z,100878.91
2022-08-24T00:48:00.962Z,100870.59
2022-08-24T00:50:38.824Z,100879.44
2022-08-24T00:53:11.790Z,100869.94
2022-08-24T00:56:02.757Z,100871.16
2022-08-24T00:58:36.460Z,100870.69
2022-08-24T01:01:07.841Z,100858.38
2022-08-24T01:03:37.728Z,100860.66
2022-08-24T01:06:05.915Z,100857.91
2022-08-24T01:08:33.684Z,100861.06
2022-08-24T01:11:04.838Z,100859.06
2022-08-24T01:13:34.470Z,100862.22
2022-08-24T01:16:05.391Z,100864.25
2022-08-24T01:18:51.240Z,100862.63
2022-08-24T01:21:23.912Z,100862.25
2022-08-24T01:23:59.238Z,100857.13
2022-08-24T01:26:41.706Z,100865.78
2022-08-24T01:29:16.432Z,100860.66
2022-08-24T01:31:44.161Z,100855.91
2022-08-24T01:34:13.283Z,100858.34
2022-08-24T01:36:45.923Z,100855.88
2022-08-24T01:39:29.256Z,100841.25
2022-08-24T01:41:57.957Z,100856.81
2022-08-24T01:44:27.668Z,100855.63
2022-08-24T01:46:56.954Z,100856.50
2022-08-24T01:49:28.684Z,100854.63
2022-08-24T01:51:56.902Z,100853.09
2022-08-24T01:54:25.375Z,100855.09
2022-08-24T01:56:53.306Z,100862.13
2022-08-24T01:59:22.310Z,100862.53
2022-08-24T02:01:55.533Z,100861.00
2022-08-24T02:04:23.476Z,100854.66
2022-08-24T02:06:51.195Z,100854.25
2022-08-24T02:09:18.562Z,100852.63
2022-08-24T02:11:48.209Z,100853.84
2022-08-24T02:14:15.650Z,100856.19
2022-08-24T02:16:42.996Z,100860.22
2022-08-24T02:19:10.576Z,100858.22
2022-08-24T02:21:38.370Z,100864.53
2022-08-24T02:24:07.830Z,100860.53
2022-08-24T02:26:35.314Z,100862.91
2022-08-24T02:29:03.495Z,100866.47
2022-08-24T02:31:33.094Z,100864.47
2022-08-24T02:34:00.810Z,100872.13
2022-08-24T02:36:29.161Z,100875.31
2022-08-24T02:38:59.124Z,100869.78
2022-08-24T02:41:27.082Z,100870.59
2022-08-24T02:43:56.654Z,100875.72
2022-08-24T02:46:27.981Z,100874.09
2022-08-24T02:49:10.033Z,100875.31
2022-08-24T02:51:45.402Z,100869.72
2022-08-24T02:54:18.185Z,100864.56
2022-08-24T02:56:48.469Z,100870.50
2022-08-24T02:59:17.048Z,100857.41
2022-08-24T03:01:45.395Z,100861.00
2022-08-24T03:04:13.669Z,100862.94
2022-08-24T03:06:41.693Z,100861.38
2022-08-24T03:09:09.123Z,100858.22
2022-08-24T03:11:36.773Z,100868.91
2022-08-24T03:14:04.198Z,100864.56
2022-08-24T03:16:32.419Z,100864.59
2022-08-24T03:19:01.731Z,100857.84
2022-08-24T03:21:33.582Z,100860.22
2022-08-24T03:24:01.203Z,100864.22
2022-08-24T03:26:28.608Z,100854.72
2022-08-24T03:28:56.588Z,100859.47
2022-08-24T03:31:26.845Z,100859.06
2022-08-24T03:33:54.367Z,100851.91
2022-08-24T03:36:22.342Z,100854.72
2022-08-24T03:38:50.548Z,100859.47
2022-08-24T03:41:19.259Z,100860.72
2022-08-24T03:43:46.935Z,100857.16
2022-08-24T03:46:21.444Z,100853.59
2022-08-24T03:48:49.907Z,100867.47
2022-08-24T03:51:28.697Z,100853.25
2022-08-24T03:53:58.653Z,100859.16
2022-08-24T03:56:29.271Z,100863.53
2022-08-24T03:58:57.504Z,100858.38
2022-08-24T04:01:28.069Z,100855.59
2022-08-24T04:03:56.026Z,100862.31
2022-08-24T04:06:29.341Z,100860.38
2022-08-24T04:08:57.048Z,100861.16
2022-08-24T04:11:28.812Z,100861.53
2022-08-24T04:13:58.156Z,100871.44
2022-08-24T04:16:26.974Z,100872.22
2022-08-24T04:19:04.214Z,100872.59
2022-08-24T04:21:35.271Z,100873.75
2022-08-24T04:24:07.706Z,100872.59
2022-08-24T04:26:44.929Z,100874.56
2022-08-24T04:29:16.615Z,100871.81
2022-08-24T04:31:48.801Z,100876.59
2022-08-24T04:34:18.326Z,100878.56
2022-08-24T04:36:46.480Z,100881.34
2022-08-24T04:39:14.860Z,100886.50
2022-08-24T04:41:45.112Z,100882.91
2022-08-24T04:44:15.173Z,100890.00
2022-08-24T04:46:42.591Z,100899.94
2022-08-24T04:49:11.081Z,100890.44
2022-08-24T04:51:38.779Z,100903.91
2022-08-24T04:54:08.306Z,100907.47
2022-08-24T04:56:36.886Z,100901.53
2022-08-24T04:59:06.000Z,100906.69
2022-08-24T05:01:34.279Z,100915.41
2022-08-24T05:04:04.712Z,100921.34
2022-08-24T05:06:33.877Z,100923.34
2022-08-24T05:09:02.790Z,100918.16
2022-08-24T05:11:31.130Z,100916.16
2022-08-24T05:13:59.441Z,100920.91
2022-08-24T05:16:27.752Z,100918.53
2022-08-24T05:18:56.507Z,100923.69
2022-08-24T05:21:25.063Z,100919.34
2022-08-24T05:23:55.081Z,100922.13
2022-08-24T05:26:27.074Z,100919.34
2022-08-24T05:28:58.011Z,100926.47
2022-08-24T05:31:30.166Z,100933.16
2022-08-24T05:34:01.230Z,100931.97
2022-08-24T05:36:31.569Z,100935.13
2022-08-24T05:39:00.767Z,100926.75
2022-08-24T05:41:29.192Z,100929.91
2022-08-24T05:44:09.584Z,100928.69
2022-08-24T05:46:37.193Z,100938.19
2022-08-24T05:49:05.152Z,100934.56
2022-08-24T05:51:36.354Z,100936.53
2022-08-24T05:54:07.739Z,100933.34
2022-08-24T05:56:50.146Z,100935.69
2022-08-24T05:59:19.651Z,100936.03
2022-08-24T06:01:48.049Z,100940.00
2022-08-24T06:04:15.535Z,100938.28
2022-08-24T06:06:43.052Z,100933.78
2022-08-24T06:09:11.762Z,100945.22
2022-08-24T06:11:41.167Z,100943.94
2022-08-24T06:14:12.935Z,100934.78
2022-08-24T06:16:53.653Z,100940.63
2022-08-24T06:19:22.895Z,100935.28
2022-08-24T06:21:53.028Z,100928.34
2022-08-24T06:24:42.354Z,100930.22
2022-08-24T06:27:23.738Z,100925.75
2022-08-24T06:30:00.757Z,100934.69
2022-08-24T06:32:50.607Z,100929.06
2022-08-24T06:35:50.353Z,100940.28
2022-08-24T06:38:19.879Z,100936.47
2022-08-24T06:40:49.018Z,100937.91
2022-08-24T06:43:16.575Z,100937.19
2022-08-24T06:45:51.943Z,100934.53
2022-08-24T06:48:23.057Z,100932.09
2022-08-24T06:50:52.258Z,100927.72
2022-08-24T06:53:20.331Z,100931.63
2022-08-24T06:55:55.688Z,100924.72
2022-08-24T06:58:24.905Z,100926.94
2022-08-24T07:00:52.302Z,100932.53
2022-08-24T07:03:22.556Z,100936.28
2022-08-24T07:05:57.930Z,100935.22
2022-08-24T07:08:36.618Z,100938.50
2022-08-24T07:11:05.701Z,100939.41
2022-08-24T07:13:33.306Z,100936.34
2022-08-24T07:16:01.400Z,100942.75
2022-08-24T07:18:29.449Z,100939.50
2022-08-24T07:21:00.669Z,100941.22
2022-08-24T07:23:42.208Z,100942.91
2022-08-24T07:26:20.943Z,100936.00
2022-08-24T07:28:54.403Z,100940.81
2022-08-24T07:31:23.125Z,100932.69
2022-08-24T07:34:01.277Z,100941.06
2022-08-24T07:36:28.731Z,100940.50
2022-08-24T07:38:57.447Z,100938.25
2022-08-24T07:44:15.760Z,100944.81
2022-08-24T07:46:43.445Z,100948.25
2022-08-24T07:49:29.317Z,100955.69
2022-08-24T07:52:01.895Z,100945.13
2022-08-24T07:54:29.422Z,100949.22
2022-08-24T07:57:02.161Z,100947.84
2022-08-24T07:59:30.188Z,100948.50
2022-08-24T08:01:58.991Z,100951.94
2022-08-24T08:04:26.647Z,100957.59
2022-08-24T08:09:30.303Z,100953.56
2022-08-24T08:11:57.763Z,100953.44
2022-08-24T08:14:25.297Z,100956.97
2022-08-24T08:16:53.544Z,100951.84
2022-08-24T08:19:20.952Z,100948.97
2022-08-24T08:22:10.031Z,100961.28
2022-08-24T08:24:55.420Z,100956.28
2022-08-24T08:27:25.157Z,100958.84
2022-08-24T08:29:52.833Z,100949.81
2022-08-24T08:32:20.332Z,100949.13
2022-08-24T08:34:50.082Z,100952.44
2022-08-24T08:37:18.516Z,100956.50
2022-08-24T08:39:46.097Z,100949.78
2022-08-24T08:42:25.410Z,100958.09
2022-08-24T08:45:14.488Z,100957.06
2022-08-24T08:47:57.746Z,100954.00
2022-08-24T08:50:47.641Z,100953.81
2022-08-24T08:53:27.849Z,100948.28
2022-08-24T08:56:14.785Z,100956.28
2022-08-24T08:59:16.308Z,100951.66
2022-08-24T09:02:15.613Z,100952.53
2022-08-24T09:05:15.825Z,100949.75
2022-08-24T09:07:46.463Z,100951.00
2022-08-24T09:10:49.877Z,100954.97
2022-08-24T09:13:58.883Z,100951.56
2022-08-24T09:16:40.915Z,100947.13
2022-08-24T09:19:31.673Z,100950.25
2022-08-24T09:22:11.971Z,100952.25
2022-08-24T09:25:05.164Z,100948.81
2022-08-24T09:28:14.607Z,100941.91
2022-08-24T09:30:57.636Z,100942.03
2022-08-24T09:34:06.283Z,100940.25
2022-08-24T09:37:18.258Z,100937.25
2022-08-24T09:40:10.034Z,100932.38
2022-08-24T09:42:49.554Z,100934.78
2022-08-24T09:45:33.747Z,100922.09
2022-08-24T09:48:30.326Z,100929.09
2022-08-24T09:51:06.858Z,100926.44
2022-08-24T09:54:03.190Z,100924.03
2022-08-24T09:56:33.170Z,100924.63
2022-08-24T09:59:19.029Z,100920.88
2022-08-24T10:02:10.425Z,100912.88
2022-08-24T10:04:56.798Z,100916.94
2022-08-24T10:08:07.280Z,100915.41
2022-08-24T10:11:07.490Z,100908.78
2022-08-24T10:13:38.058Z,100909.78
2022-08-24T10:16:30.274Z,100902.44
2022-08-24T10:19:19.170Z,100898.41
2022-08-24T10:22:06.088Z,100897.16
2022-08-24T10:24:46.980Z,100899.13
2022-08-24T10:27:35.728Z,100905.22
2022-08-24T10:30:08.954Z,100901.22
2022-08-24T10:33:17.537Z,100900.38
2022-08-24T10:36:20.929Z,100897.66
2022-08-24T10:39:22.511Z,100894.34
2022-08-24T10:42:36.938Z,100891.91
2022-08-24T10:45:35.703Z,100887.72
2022-08-24T10:48:33.455Z,100882.75
2022-08-24T10:51:11.172Z,100887.75
2022-08-24T10:53:38.741Z,100887.97
2022-08-24T10:56:11.396Z,100888.38
2022-08-24T10:58:47.427Z,100881.94
2022-08-24T11:01:17.056Z,100882.19
2022-08-24T11:04:13.655Z,100881.44
2022-08-24T11:06:44.498Z,100890.03
2022-08-24T11:09:19.918Z,100882.66
2022-08-24T11:11:49.800Z,100884.50
2022-08-24T11:14:26.743Z,100876.66
2022-08-24T11:17:05.056Z,100869.03
2022-08-24T11:19:35.294Z,100873.56
2022-08-24T11:22:06.634Z,100873.13
2022-08-24T11:24:46.221Z,100874.28
2022-08-24T11:27:16.348Z,100864.31
2022-08-24T11:29:49.434Z,100864.78
2022-08-24T11:32:26.971Z,100873.78
2022-08-24T11:34:54.836Z,100871.19
2022-08-24T11:37:31.032Z,100877.09
2022-08-24T11:39:58.478Z,100854.47
2022-08-24T11:42:48.166Z,100865.53
2022-08-24T11:45:18.194Z,100874.13
2022-08-24T11:47:45.464Z,100870.31
2022-08-24T11:50:24.592Z,100864.97
2022-08-24T11:53:28.868Z,100867.50
2022-08-24T11:56:04.518Z,100863.19
2022-08-24T11:58:48.740Z,100862.41
2022-08-24T12:01:19.106Z,100866.66
2022-08-24T12:04:02.933Z,100866.16
2022-08-24T12:06:55.803Z,100869.13
2022-08-24T12:09:49.988Z,100863.59
2022-08-24T12:12:51.156Z,100860.63
2022-08-24T12:15:30.388Z,100857.28
2022-08-24T12:18:03.032Z,100847.59
2022-08-24T12:20:37.249Z,100846.97
2022-08-24T12:23:11.566Z,100849.63
2022-08-24T12:25:57.716Z,100859.94
2022-08-24T12:28:30.286Z,100854.09
2022-08-24T12:31:04.725Z,100848.00
2022-08-24T12:33:37.552Z,100845.25
2022-08-24T12:36:16.368Z,100843.72
2022-08-24T12:38:57.784Z,100843.91
2022-08-24T12:41:33.784Z,100844.44
2022-08-24T12:44:12.799Z,100848.94
2022-08-24T12:46:43.100Z,100843.78
2022-08-24T12:49:23.480Z,100841.38
2022-08-24T12:51:51.827Z,100832.56
2022-08-24T12:54:21.794Z,100833.25
2022-08-24T12:57:02.565Z,100830.47
2022-08-24T12:59:36.723Z,100833.19
2022-08-24T13:02:19.311Z,100838.78
2022-08-24T13:04:49.682Z,100828.75
2022-08-24T13:07:19.782Z,100835.66
2022-08-24T13:09:53.266Z,100828.72
2022-08-24T13:12:41.753Z,100824.81
2022-08-24T13:15:26.606Z,100824.78
2022-08-24T13:18:09.991Z,100812.94
2022-08-24T13:20:43.880Z,100828.06
2022-08-24T13:23:11.864Z,100818.47
2022-08-24T13:25:50.589Z,100815.41
2022-08-24T13:28:21.092Z,100805.56
2022-08-24T13:31:15.925Z,100809.72
2022-08-24T13:33:52.928Z,100803.63
2022-08-24T13:36:29.192Z,100808.28
2022-08-24T13:39:34.940Z,100812.75
2022-08-24T13:42:36.611Z,100811.31
2022-08-24T13:45:25.818Z,100812.59
2022-08-24T13:48:14.412Z,100808.69
2022-08-24T13:51:20.497Z,100809.84
2022-08-24T13:54:23.175Z,100806.75
2022-08-24T13:56:55.601Z,100801.19
2022-08-24T13:59:47.119Z,100808.97
2022-08-24T14:02:14.413Z,100805.97
2022-08-24T14:05:03.579Z,100808.03
2022-08-24T14:07:49.880Z,100806.78
2022-08-24T14:10:39.193Z,100804.81
2022-08-24T14:13:30.849Z,100799.41
2022-08-24T14:16:42.841Z,100801.16
2022-08-24T14:19:17.235Z,100793.63
2022-08-24T14:21:55.024Z,100796.28
2022-08-24T14:24:48.456Z,100790.41
2022-08-24T14:27:37.376Z,100797.78
2022-08-24T14:30:20.035Z,100795.66
2022-08-24T14:32:59.571Z,100798.44
2022-08-24T14:35:57.026Z,100800.66
2022-08-24T14:38:32.779Z,100797.88
2022-08-24T14:41:19.814Z,100796.81
2022-08-24T14:44:32.319Z,100800.50
2022-08-24T14:47:02.268Z,100798.22
2022-08-24T14:49:35.998Z,100795.88
2022-08-24T14:52:50.246Z,100796.84
2022-08-24T14:55:35.553Z,100796.44
2022-08-24T14:58:11.625Z,100794.41
2022-08-24T15:00:50.884Z,100795.06
2022-08-24T15:03:48.562Z,100795.91
2022-08-24T15:06:39.129Z,100795.75
2022-08-24T15:09:08.661Z,100799.47
2022-08-24T15:11:38.493Z,100799.63
2022-08-24T15:14:11.742Z,100796.53
2022-08-24T15:16:53.386Z,100795.63
2022-08-24T15:19:22.989Z,100791.69
2022-08-24T15:22:08.191Z,100794.03
2022-08-24T15:24:55.003Z,100787.91
2022-08-24T15:27:28.431Z,100794.22
2022-08-24T15:29:59.431Z,100786.53
2022-08-24T15:32:44.343Z,100796.69
2022-08-24T15:35:31.665Z,100794.03
2022-08-24T15:38:18.532Z,100785.72
2022-08-24T15:40:47.275Z,100784.50
2022-08-24T15:43:14.703Z,100790.44
2022-08-24T15:45:51.768Z,100785.44
2022-08-24T15:48:24.572Z,100801.34
2022-08-24T15:50:54.368Z,100791.66
2022-08-24T15:53:35.154Z,100789.31
2022-08-24T15:56:25.866Z,100789.78
2022-08-24T15:58:53.682Z,100786.38
2022-08-24T16:01:46.752Z,100782.25
2022-08-24T16:04:42.859Z,100784.94
2022-08-24T16:07:14.888Z,100785.22
2022-08-24T16:09:43.298Z,100788.16
2022-08-24T16:12:22.783Z,100787.22
2022-08-24T16:15:17.188Z,100780.19
2022-08-24T16:17:56.002Z,100787.66
2022-08-24T16:20:23.336Z,100786.31
2022-08-24T16:23:01.314Z,100788.22
2022-08-24T16:25:31.442Z,100781.75
2022-08-24T16:28:06.005Z,100789.06
2022-08-24T16:30:44.466Z,100788.91
2022-08-24T16:33:36.708Z,100793.44
2022-08-24T16:36:14.308Z,100776.50
2022-08-24T16:38:47.470Z,100795.16
2022-08-24T16:41:18.517Z,100783.38
2022-08-24T16:43:46.626Z,100786.34
2022-08-24T16:46:20.125Z,100782.59
2022-08-24T16:48:47.599Z,100781.28
2022-08-24T16:51:15.012Z,100790.63
2022-08-24T16:53:42.807Z,100793.91
2022-08-24T16:56:12.555Z,100793.56
2022-08-24T16:58:45.509Z,100794.50
2022-08-24T17:01:14.096Z,100794.53
2022-08-24T17:03:42.590Z,100791.53
2022-08-24T17:06:14.727Z,100796.38
2022-08-24T17:08:42.151Z,100791.94
2022-08-24T17:11:09.508Z,100798.22
2022-08-24T17:13:49.298Z,100801.97
2022-08-24T17:16:19.821Z,100798.47
2022-08-24T17:18:47.900Z,100800.50
2022-08-24T17:21:15.465Z,100800.06
2022-08-24T17:23:43.439Z,100808.84
2022-08-24T17:26:20.485Z,100806.63
2022-08-24T17:28:52.528Z,100802.47
2022-08-24T17:31:20.388Z,100803.78
2022-08-24T17:33:47.815Z,100803.97
2022-08-24T17:36:16.547Z,100804.53
2022-08-24T17:38:51.718Z,100810.81
2022-08-24T17:41:26.235Z,100810.47
2022-08-24T17:43:55.091Z,100816.31
2022-08-24T17:46:22.980Z,100820.56
2022-08-24T17:48:50.560Z,100816.75
2022-08-24T17:51:17.977Z,100817.63
2022-08-24T17:53:45.326Z,100824.00
2022-08-24T17:56:14.611Z,100816.53
2022-08-24T17:59:02.521Z,100822.50
2022-08-24T18:01:30.495Z,100821.69
2022-08-24T18:03:57.940Z,100819.88
2022-08-24T18:06:27.772Z,100818.31
2022-08-24T18:08:58.187Z,100819.75
2022-08-24T18:11:26.381Z,100819.31
2022-08-24T18:13:54.642Z,100821.75
2022-08-24T18:16:24.437Z,100818.63
2022-08-24T18:18:52.508Z,100832.09
2022-08-24T18:21:21.269Z,100828.69
2022-08-24T18:23:50.291Z,100827.22
2022-08-24T18:26:27.911Z,100838.38
2022-08-24T18:29:06.721Z,100837.06
2022-08-24T18:31:34.099Z,100836.28
2022-08-24T18:34:01.581Z,100841.03
2022-08-24T18:36:28.906Z,100846.69
2022-08-24T18:38:56.480Z,100841.81
2022-08-24T18:41:28.138Z,100855.09
2022-08-24T18:43:55.501Z,100843.31
2022-08-24T18:46:27.015Z,100843.47
2022-08-24T18:48:54.302Z,100846.38
2022-08-24T18:51:21.882Z,100851.28
2022-08-24T18:53:50.202Z,100851.56
2022-08-24T18:56:19.186Z,100863.00
2022-08-24T18:58:46.565Z,100868.09
2022-08-24T19:01:14.140Z,100870.50
2022-08-24T19:03:42.377Z,100872.44
2022-08-24T19:06:09.812Z,100876.91
2022-08-24T19:08:37.187Z,100876.78
2022-08-24T19:11:05.786Z,100885.91
2022-08-24T19:13:33.670Z,100886.41
2022-08-24T19:16:01.305Z,100887.41
2022-08-24T19:18:28.713Z,100892.28
2022-08-24T19:20:58.562Z,100897.88
2022-08-24T19:23:33.949Z,100893.06
2022-08-24T19:26:02.260Z,100897.69
2022-08-24T19:28:29.672Z,100906.34
2022-08-24T19:30:59.577Z,100903.28
2022-08-24T19:33:34.228Z,100904.59
2022-08-24T19:36:01.925Z,100908.50
2022-08-24T19:38:29.518Z,100904.88
2022-08-24T19:40:58.118Z,100916.84
2022-08-24T19:43:27.851Z,100909.25
2022-08-24T19:46:03.892Z,100919.50
2022-08-24T19:48:42.075Z,100914.50
2022-08-24T19:51:13.146Z,100921.13
2022-08-24T19:53:42.883Z,100918.56
2022-08-24T19:56:11.337Z,100914.97
2022-08-24T19:58:40.918Z,100922.25
2022-08-24T20:01:13.362Z,100930.97
2022-08-24T20:03:40.957Z,100934.09
2022-08-24T20:06:08.424Z,100924.50
2022-08-24T20:08:36.030Z,100932.22
2022-08-24T20:11:03.950Z,100929.81
2022-08-24T20:13:31.247Z,100927.03
2022-08-24T20:15:59.238Z,100941.50
2022-08-24T20:18:32.837Z,100936.63
2022-08-24T20:21:00.693Z,100944.22
2022-08-24T20:23:29.452Z,100932.88
2022-08-24T20:25:58.511Z,100934.81
2022-08-24T20:28:37.827Z,100930.09
2022-08-24T20:31:06.233Z,100933.69
2022-08-24T20:33:33.958Z,100933.69
2022-08-24T20:36:01.468Z,100931.53
2022-08-24T20:38:29.406Z,100929.31
2022-08-24T20:41:00.899Z,100939.09
2022-08-24T20:43:28.999Z,100935.75
2022-08-24T20:45:56.763Z,100936.00
2022-08-24T20:48:30.659Z,100940.38
2022-08-24T20:50:59.375Z,100933.47
2022-08-24T20:53:27.142Z,100936.16
2022-08-24T20:55:56.792Z,100930.28
2022-08-24T20:58:25.310Z,100945.75
2022-08-24T21:00:52.703Z,100946.00
2022-08-24T21:03:20.216Z,100942.03
2022-08-24T21:05:48.643Z,100945.66
2022-08-24T21:08:15.980Z,100955.81
2022-08-24T21:10:43.602Z,100952.53
2022-08-24T21:13:11.480Z,100954.25
2022-08-24T21:15:40.745Z,100948.66
2022-08-24T21:18:10.191Z,100958.03
2022-08-24T21:20:38.528Z,100950.41
2022-08-24T21:23:10.820Z,100957.75
2022-08-24T21:25:39.850Z,100957.44
2022-08-24T21:28:07.287Z,100955.84
2022-08-24T21:30:35.037Z,100962.91
2022-08-24T21:33:24.495Z,100956.94
2022-08-24T21:35:53.916Z,100955.44
2022-08-24T21:38:22.877Z,100962.06
2022-08-24T21:40:52.611Z,100957.41
2022-08-24T21:43:20.266Z,100961.69
2022-08-24T21:45:51.471Z,100959.50
2022-08-24T21:48:19.302Z,100963.38
2022-08-24T21:50:47.446Z,100966.72
2022-08-24T21:53:14.966Z,100962.22
2022-08-24T21:55:42.991Z,100966.16
2022-08-24T21:58:11.543Z,100963.31
2022-08-24T22:00:39.330Z,100963.84
2022-08-24T22:03:08.559Z,100955.13
2022-08-24T22:05:36.293Z,100963.34
2022-08-24T22:08:03.854Z,100955.97
2022-08-24T22:10:31.723Z,100947.31
2022-08-24T22:13:03.873Z,100954.44
2022-08-24T22:15:33.147Z,100957.59
2022-08-24T22:18:01.359Z,100958.13
2022-08-24T22:20:28.766Z,100960.38
2022-08-24T22:22:58.434Z,100960.41
2022-08-24T22:25:26.100Z,100959.75
2022-08-24T22:27:53.497Z,100950.94
2022-08-24T22:30:20.935Z,100946.84
2022-08-24T22:32:48.309Z,100952.34
2022-08-24T22:35:15.675Z,100947.53
2022-08-24T22:37:43.929Z,100953.09
2022-08-24T22:40:12.758Z,100941.66
2022-08-24T22:42:40.500Z,100945.06
2022-08-24T22:45:09.785Z,100943.53
2022-08-24T22:47:37.362Z,100943.97
2022-08-24T22:50:06.341Z,100950.66
2022-08-24T22:52:34.206Z,100941.41
2022-08-24T22:55:01.726Z,100949.19
2022-08-24T22:57:30.342Z,100952.56
2022-08-24T22:59:58.085Z,100953.13
2022-08-24T23:02:25.455Z,100950.63
2022-08-24T23:04:53.379Z,100956.22
2022-08-24T23:07:21.145Z,100961.78
2022-08-24T23:09:49.045Z,100951.47
2022-08-24T23:12:19.914Z,100951.44
2022-08-24T23:14:50.360Z,100964.63
2022-08-24T23:17:18.613Z,100946.38
2022-08-24T23:20:01.192Z,100951.06
2022-08-24T23:22:38.317Z,100947.47
2022-08-24T23:25:08.859Z,100945.06
2022-08-24T23:27:38.200Z,100938.44
2022-08-24T23:30:12.433Z,100942.09
2022-08-24T23:32:40.484Z,100937.63
2022-08-24T23:35:08.948Z,100936.56
2022-08-24T23:37:36.413Z,100931.22
2022-08-24T23:40:04.784Z,100928.50
2022-08-24T23:42:32.237Z,100940.00
2022-08-24T23:44:59.576Z,100939.28
2022-08-24T23:47:27.551Z,100942.44
2022-08-24T23:49:55.490Z,100930.94
2022-08-24T23:52:28.552Z,100938.19
2022-08-24T23:55:17.950Z,100921.97
2022-08-24T23:57:46.313Z,100924.47
